Time;durP1;ratioP1;P1;durP2;ratioP2;P2;SDS_P1;SDS_P2;PMS_P1;PMS_P2;Temp;Humidity;BMP_temperature;BMP_pressure;BME280_temperature;BME280_humidity;BME280_pressure;Samples;Min_cycle;Max_cycle;Signal;HPM_P1;HPM_P2
2022/10/02 00:01:51;;;;;;;9.93;6.80;;;10.60;99.90;;;;;;4918430;29;20251;-76
2022/10/02 00:04:51;;;;;;;11.20;7.23;;;10.70;99.90;;;;;;4918120;29;20226;-76
2022/10/02 00:07:22;;;;;;;12.10;6.83;;;10.70;99.90;;;;;;4917705;29;20285;-76
2022/10/02 00:09:54;;;;;;;11.47;7.10;;;10.70;99.90;;;;;;4910603;29;20258;-78
2022/10/02 00:12:25;;;;;;;9.43;6.43;;;10.70;99.90;;;;;;4916542;29;20733;-82
2022/10/02 00:14:59;;;;;;;11.03;6.77;;;10.70;99.90;;;;;;4917889;29;20258;-77
2022/10/02 00:17:31;;;;;;;12.03;7.10;;;10.70;99.90;;;;;;4919536;29;20195;-82
2022/10/02 00:19:58;;;;;;;12.60;7.43;;;10.70;99.90;;;;;;4918188;29;20293;-83
2022/10/02 00:22:43;;;;;;;12.00;6.97;;;10.70;99.90;;;;;;4917825;29;20219;-85
2022/10/02 00:25:21;;;;;;;14.13;6.90;;;10.70;99.90;;;;;;4917862;29;20215;-76
2022/10/02 00:28:24;;;;;;;10.37;6.93;;;10.70;99.90;;;;;;4917741;29;20200;-82
2022/10/02 00:31:00;;;;;;;11.27;7.53;;;10.60;99.90;;;;;;4905780;29;20687;-75
2022/10/02 00:34:09;;;;;;;11.00;7.17;;;10.60;99.90;;;;;;4917521;29;20549;-77
2022/10/02 00:37:26;;;;;;;12.27;7.60;;;10.60;99.90;;;;;;4878642;29;20216;-79
2022/10/02 00:40:21;;;;;;;12.13;7.37;;;10.60;99.90;;;;;;4878901;29;20209;-81
2022/10/02 00:43:16;;;;;;;13.27;8.10;;;10.50;99.90;;;;;;4876496;29;20331;-80
2022/10/02 00:45:51;;;;;;;13.30;8.43;;;10.40;99.90;;;;;;4870434;29;20663;-80
2022/10/02 00:48:43;;;;;;;13.47;8.50;;;10.40;99.90;;;;;;4863157;29;20213;-78
2022/10/02 00:51:43;;;;;;;14.13;8.67;;;10.50;99.90;;;;;;4863872;29;20251;-75
2022/10/02 00:54:36;;;;;;;13.73;8.60;;;10.50;99.90;;;;;;4863251;29;20204;-80
2022/10/02 00:57:33;;;;;;;12.67;8.63;;;10.60;99.90;;;;;;4878630;29;20205;-82
2022/10/02 01:00:06;;;;;;;15.80;8.80;;;10.50;99.90;;;;;;4862689;29;20219;-73
2022/10/02 01:03:05;;;;;;;17.23;9.07;;;10.50;99.90;;;;;;4877781;29;20220;-73
2022/10/02 01:05:33;;;;;;;14.83;9.13;;;10.50;99.90;;;;;;4841067;29;20214;-75
2022/10/02 01:08:01;;;;;;;13.10;9.13;;;10.50;99.90;;;;;;4808745;29;20227;-76
2022/10/02 01:10:29;;;;;;;18.40;10.30;;;10.50;99.90;;;;;;4807903;29;20214;-73
2022/10/02 01:12:56;;;;;;;17.00;10.50;;;10.40;99.90;;;;;;4829443;29;20218;-75
2022/10/02 01:15:30;;;;;;;14.80;9.73;;;10.50;99.90;;;;;;4859298;29;20205;-73
2022/10/02 01:17:58;;;;;;;17.17;10.53;;;10.50;99.90;;;;;;4859612;29;20202;-73
2022/10/02 01:20:40;;;;;;;18.37;9.50;;;10.60;99.90;;;;;;4859489;29;20220;-77
2022/10/02 01:23:23;;;;;;;18.90;10.43;;;10.60;99.90;;;;;;4859378;29;20229;-74
2022/10/02 01:25:50;;;;;;;18.33;10.53;;;10.60;99.90;;;;;;4862663;29;20675;-74
2022/10/02 01:28:17;;;;;;;18.40;11.10;;;10.60;99.90;;;;;;4864635;29;20253;-81
2022/10/02 01:30:49;;;;;;;16.80;11.03;;;10.60;99.90;;;;;;4864094;29;20205;-76
2022/10/02 01:33:16;;;;;;;17.97;10.77;;;10.60;99.90;;;;;;4862822;29;20261;-86
2022/10/02 01:35:44;;;;;;;16.27;11.10;;;10.60;99.90;;;;;;4862545;29;20612;-80
2022/10/02 01:38:15;;;;;;;18.10;11.30;;;10.60;99.90;;;;;;4862506;29;20637;-78
2022/10/02 01:40:43;;;;;;;17.03;10.93;;;10.70;99.90;;;;;;4862286;29;20213;-83
2022/10/02 01:43:11;;;;;;;16.13;11.23;;;10.70;99.90;;;;;;4914775;29;20331;-74
2022/10/02 01:46:03;;;;;;;19.17;11.20;;;10.70;99.90;;;;;;4915823;29;20553;-76
2022/10/02 01:48:33;;;;;;;18.70;11.67;;;10.70;99.90;;;;;;4916427;29;20710;-75
2022/10/02 01:51:29;;;;;;;16.63;11.37;;;10.70;99.90;;;;;;4916197;29;20211;-83
2022/10/02 01:54:12;;;;;;;18.53;11.17;;;10.70;99.90;;;;;;4825266;29;20271;-79
2022/10/02 01:56:47;;;;;;;16.93;10.87;;;10.70;99.90;;;;;;4840307;29;20213;-76
2022/10/02 01:59:22;;;;;;;15.50;10.67;;;10.60;99.90;;;;;;4839947;29;20205;-73
2022/10/02 02:02:07;;;;;;;16.27;10.23;;;10.70;99.90;;;;;;4840512;29;20205;-74
2022/10/02 02:04:49;;;;;;;15.47;10.17;;;10.70;99.90;;;;;;4840420;29;20252;-74
2022/10/02 02:07:34;;;;;;;15.97;10.57;;;10.80;99.90;;;;;;4840450;29;20213;-72
2022/10/02 02:10:24;;;;;;;15.50;10.67;;;10.90;99.90;;;;;;4825168;29;20217;-78
2022/10/02 02:13:32;;;;;;;14.20;9.93;;;10.80;99.90;;;;;;4824819;29;20210;-73
2022/10/02 02:16:07;;;;;;;16.20;9.93;;;10.70;99.90;;;;;;4767934;30;20346;-72
2022/10/02 02:18:45;;;;;;;13.40;9.33;;;10.80;99.90;;;;;;4767964;30;20220;-74
2022/10/02 02:21:21;;;;;;;13.30;9.73;;;10.80;99.90;;;;;;4767965;30;20213;-74
2022/10/02 02:23:49;;;;;;;13.57;9.37;;;10.80;99.90;;;;;;4752942;30;20244;-74
2022/10/02 02:26:18;;;;;;;14.83;9.47;;;10.80;99.90;;;;;;4768050;30;20209;-74
2022/10/02 02:28:52;;;;;;;14.87;9.80;;;10.80;99.90;;;;;;4768386;30;20213;-74
2022/10/02 02:31:23;;;;;;;14.13;9.53;;;10.80;99.90;;;;;;4821412;29;20202;-74
2022/10/02 02:33:58;;;;;;;15.60;9.50;;;10.80;99.90;;;;;;4843554;29;20217;-78
2022/10/02 02:36:31;;;;;;;13.07;9.43;;;10.90;99.90;;;;;;4858884;29;20284;-80
2022/10/02 02:39:05;;;;;;;13.87;8.97;;;10.80;99.90;;;;;;4858839;29;20213;-77
2022/10/02 02:41:39;;;;;;;15.53;9.40;;;10.80;99.90;;;;;;4858271;29;20240;-75
2022/10/02 02:44:12;;;;;;;15.27;9.73;;;10.90;99.90;;;;;;4858700;29;20945;-76
2022/10/02 02:47:05;;;;;;;15.30;10.27;;;10.90;99.90;;;;;;4843122;29;20718;-80
2022/10/02 02:49:44;;;;;;;15.10;10.57;;;10.90;99.90;;;;;;4843336;29;20217;-77
2022/10/02 02:52:19;;;;;;;14.83;10.60;;;10.90;99.90;;;;;;4899898;29;20207;-83
2022/10/02 02:54:52;;;;;;;14.43;10.37;;;10.80;99.90;;;;;;4915498;29;20277;-80
2022/10/02 02:57:52;;;;;;;16.27;11.27;;;10.80;99.90;;;;;;4916660;29;20561;-75
2022/10/02 03:00:21;;;;;;;14.20;10.30;;;10.80;99.90;;;;;;4842966;29;20206;-80
2022/10/02 03:02:49;;;;;;;15.03;11.03;;;10.80;99.90;;;;;;4858798;29;20205;-77
2022/10/02 03:05:17;;;;;;;15.60;11.33;;;10.90;99.90;;;;;;4858230;29;20209;-79
2022/10/02 03:07:54;;;;;;;17.50;11.47;;;11.00;99.90;;;;;;4858619;29;20242;-77
2022/10/02 03:10:32;;;;;;;16.53;11.80;;;10.90;99.90;;;;;;4858233;29;20208;-75
2022/10/02 03:13:44;;;;;;;15.80;11.77;;;10.90;99.90;;;;;;4858084;29;20242;-75
2022/10/02 03:16:36;;;;;;;18.57;11.70;;;10.90;99.90;;;;;;4842823;29;20221;-75
2022/10/02 03:19:38;;;;;;;17.63;12.53;;;11.00;99.90;;;;;;4858642;29;20230;-76
2022/10/02 03:22:17;;;;;;;17.87;11.83;;;11.00;99.90;;;;;;4858829;29;20599;-76
2022/10/02 03:25:02;;;;;;;17.23;11.63;;;10.90;99.90;;;;;;4858172;29;20241;-78
2022/10/02 03:27:44;;;;;;;16.80;12.20;;;10.90;99.90;;;;;;4858144;29;20213;-75
2022/10/02 03:30:13;;;;;;;16.13;11.60;;;10.90;99.90;;;;;;4844944;29;20217;-76
2022/10/02 03:32:44;;;;;;;16.60;12.03;;;10.80;99.90;;;;;;4861979;29;20268;-76
2022/10/02 03:35:13;;;;;;;17.03;12.13;;;10.90;99.90;;;;;;4846478;29;20209;-85
2022/10/02 03:37:45;;;;;;;16.77;11.90;;;11.00;99.90;;;;;;4898410;29;20211;-85
2022/10/02 03:40:13;;;;;;;16.47;11.87;;;10.90;99.90;;;;;;4900111;29;20248;-79
2022/10/02 03:42:40;;;;;;;17.87;11.37;;;10.90;99.90;;;;;;4915340;29;20244;-80
2022/10/02 03:45:08;;;;;;;17.13;11.87;;;11.00;99.90;;;;;;4900824;29;20215;-84
2022/10/02 03:47:35;;;;;;;20.33;12.00;;;10.90;99.90;;;;;;4899910;29;20538;-79
2022/10/02 03:50:01;;;;;;;17.50;11.57;;;10.90;99.90;;;;;;4900999;29;20204;-82
2022/10/02 03:52:31;;;;;;;16.47;11.63;;;10.90;99.90;;;;;;4899754;29;20264;-78
2022/10/02 03:55:03;;;;;;;18.90;11.03;;;10.90;99.90;;;;;;4899671;29;20192;-82
2022/10/02 03:57:32;;;;;;;17.37;12.17;;;10.90;99.90;;;;;;4899747;29;20196;-81
2022/10/02 04:00:11;;;;;;;15.77;12.10;;;10.90;99.90;;;;;;4899818;29;20260;-81
2022/10/02 04:02:47;;;;;;;18.20;12.07;;;10.90;99.90;;;;;;4899265;29;20291;-75
2022/10/02 04:05:35;;;;;;;17.27;12.37;;;11.00;99.90;;;;;;4900066;29;20231;-79
2022/10/02 04:08:16;;;;;;;19.27;12.23;;;10.90;99.90;;;;;;4899936;29;20654;-77
2022/10/02 04:11:05;;;;;;;19.47;12.70;;;11.00;99.90;;;;;;4900761;29;20203;-79
2022/10/02 04:13:38;;;;;;;16.63;12.07;;;11.00;99.90;;;;;;4901209;29;20297;-83
2022/10/02 04:16:30;;;;;;;18.00;12.20;;;11.00;99.90;;;;;;4919448;29;20215;-80
2022/10/02 04:19:11;;;;;;;18.80;11.90;;;11.00;99.90;;;;;;4905629;29;20204;-76
2022/10/02 04:22:06;;;;;;;17.97;13.30;;;11.00;99.90;;;;;;4899054;29;20215;-83
2022/10/02 04:24:41;;;;;;;20.67;13.70;;;11.00;99.90;;;;;;4899246;29;20280;-81
2022/10/02 04:27:50;;;;;;;19.43;13.70;;;11.00;99.90;;;;;;4898974;29;20208;-75
2022/10/02 04:30:19;;;;;;;18.20;13.17;;;11.00;99.90;;;;;;4830895;29;20220;-82
2022/10/02 04:32:46;;;;;;;19.07;14.03;;;10.90;99.90;;;;;;4860755;29;20395;-76
2022/10/02 04:35:43;;;;;;;19.37;13.70;;;10.80;99.90;;;;;;4860680;29;20214;-77
2022/10/02 04:38:27;;;;;;;19.23;13.97;;;10.90;99.90;;;;;;4844331;29;20202;-75
2022/10/02 04:41:08;;;;;;;20.53;14.43;;;10.90;99.90;;;;;;4844608;29;20210;-76
2022/10/02 04:44:08;;;;;;;24.47;15.50;;;10.90;99.90;;;;;;4860214;29;20241;-76
2022/10/02 04:46:35;;;;;;;20.33;14.13;;;10.90;99.90;;;;;;4860845;29;20200;-78
2022/10/02 04:49:38;;;;;;;22.10;14.90;;;10.90;99.90;;;;;;4860427;29;20217;-80
2022/10/02 04:52:33;;;;;;;22.00;16.03;;;10.90;99.90;;;;;;4845107;29;20204;-80
2022/10/02 04:55:37;;;;;;;20.47;15.20;;;10.80;99.90;;;;;;4844682;29;20206;-85
2022/10/02 04:58:22;;;;;;;23.17;16.10;;;10.80;99.90;;;;;;4842196;29;20665;-83
2022/10/02 05:01:03;;;;;;;22.00;15.97;;;10.80;99.90;;;;;;4854637;29;20204;-81
2022/10/02 05:03:47;;;;;;;22.63;16.17;;;10.90;99.90;;;;;;4913955;29;20219;-84
2022/10/02 05:06:29;;;;;;;22.43;15.90;;;10.90;99.90;;;;;;4902277;29;20238;-83
2022/10/02 05:09:05;;;;;;;21.27;15.57;;;10.90;99.90;;;;;;4917421;29;20298;-77
2022/10/02 05:11:58;;;;;;;18.63;14.43;;;10.90;99.90;;;;;;4917027;29;20215;-81
2022/10/02 05:15:03;;;;;;;21.67;15.63;;;10.90;99.90;;;;;;4917104;29;20215;-79
2022/10/02 05:17:43;;;;;;;21.57;14.47;;;11.00;99.90;;;;;;4917066;29;20221;-81
2022/10/02 05:20:50;;;;;;;23.23;15.17;;;11.00;99.90;;;;;;4914796;29;20211;-79
2022/10/02 05:23:25;;;;;;;21.30;14.73;;;10.90;99.90;;;;;;4844313;29;20736;-76
2022/10/02 05:26:04;;;;;;;18.80;14.10;;;10.90;99.90;;;;;;4829495;29;20747;-78
2022/10/02 05:29:00;;;;;;;21.70;15.40;;;10.90;99.90;;;;;;4830127;29;20211;-75
2022/10/02 05:31:59;;;;;;;20.20;14.20;;;11.00;99.90;;;;;;4859436;29;20206;-75
2022/10/02 05:35:00;;;;;;;20.37;14.17;;;11.00;99.90;;;;;;4859457;29;20229;-85
2022/10/02 05:37:45;;;;;;;22.43;14.53;;;11.00;99.90;;;;;;4859678;29;20198;-84
2022/10/02 05:40:16;;;;;;;20.97;14.80;;;11.00;99.90;;;;;;4843631;29;20210;-81
2022/10/02 05:42:55;;;;;;;22.20;14.93;;;11.10;99.90;;;;;;4825558;29;20310;-78
2022/10/02 05:45:42;;;;;;;21.13;15.20;;;11.10;99.90;;;;;;4825674;29;20230;-80
2022/10/02 05:48:24;;;;;;;20.30;14.40;;;11.20;99.90;;;;;;4825831;29;20206;-78
2022/10/02 05:50:58;;;;;;;22.23;15.30;;;11.20;99.90;;;;;;4841174;29;20700;-80
2022/10/02 05:53:39;;;;;;;20.63;14.87;;;11.00;99.90;;;;;;4828283;29;20803;-81
2022/10/02 05:56:20;;;;;;;21.23;14.63;;;11.10;99.90;;;;;;4859104;29;20206;-75
2022/10/02 05:58:50;;;;;;;23.57;15.00;;;11.10;99.90;;;;;;4843946;29;20202;-75
2022/10/02 06:01:17;;;;;;;22.37;14.70;;;11.10;99.90;;;;;;4910486;29;20255;-75
2022/10/02 06:04:10;;;;;;;18.50;13.90;;;11.20;99.90;;;;;;4915970;29;20263;-76
2022/10/02 06:06:47;;;;;;;16.67;13.00;;;11.20;99.90;;;;;;4915963;29;20724;-77
2022/10/02 06:09:16;;;;;;;18.90;13.93;;;11.20;99.90;;;;;;4916272;29;20650;-74
2022/10/02 06:12:30;;;;;;;19.03;13.70;;;11.20;99.90;;;;;;4917060;29;20283;-75
2022/10/02 06:15:15;;;;;;;18.83;14.07;;;11.20;99.90;;;;;;4896366;29;20211;-75
2022/10/02 06:17:49;;;;;;;20.23;14.40;;;11.20;99.90;;;;;;4897296;29;20211;-75
2022/10/02 06:20:43;;;;;;;22.43;15.27;;;11.30;99.90;;;;;;4898332;29;20204;-75
2022/10/02 06:23:22;;;;;;;20.13;14.17;;;11.30;99.90;;;;;;4896781;29;20208;-75
2022/10/02 06:25:56;;;;;;;20.10;14.70;;;11.40;99.90;;;;;;4912341;29;20235;-80
2022/10/02 06:28:28;;;;;;;22.77;15.90;;;11.30;99.90;;;;;;4917426;29;20211;-78
2022/10/02 06:31:09;;;;;;;22.80;16.17;;;11.30;99.90;;;;;;4915692;29;20271;-77
2022/10/02 06:33:40;;;;;;;21.70;15.80;;;11.30;99.90;;;;;;4917002;29;20652;-76
2022/10/02 06:36:12;;;;;;;22.50;16.10;;;11.40;99.90;;;;;;4915727;29;20526;-75
2022/10/02 06:39:06;;;;;;;22.53;16.60;;;11.40;99.90;;;;;;4915879;29;20204;-78
2022/10/02 06:41:58;;;;;;;21.13;15.33;;;11.40;99.90;;;;;;4915876;29;20231;-81
2022/10/02 06:44:31;;;;;;;20.47;14.97;;;11.50;99.90;;;;;;4916638;29;20223;-75
2022/10/02 06:47:13;;;;;;;20.10;14.57;;;11.50;99.90;;;;;;4884333;29;20196;-78
2022/10/02 06:50:11;;;;;;;19.67;14.80;;;11.40;99.90;;;;;;4916846;29;20206;-86
2022/10/02 06:52:59;;;;;;;21.63;13.67;;;11.40;99.90;;;;;;4899805;29;20554;-75
2022/10/02 06:55:51;;;;;;;15.93;12.13;;;11.50;99.90;;;;;;4916836;29;20630;-79
2022/10/02 06:58:44;;;;;;;17.93;12.80;;;11.50;99.90;;;;;;4899943;29;20203;-76
2022/10/02 07:01:49;;;;;;;16.80;12.70;;;11.50;99.90;;;;;;4882987;29;20204;-76
2022/10/02 07:04:50;;;;;;;18.90;13.30;;;11.50;99.90;;;;;;4827425;29;20234;-76
2022/10/02 07:07:38;;;;;;;16.30;12.83;;;11.60;99.90;;;;;;4828558;29;20198;-78
2022/10/02 07:10:32;;;;;;;18.60;13.30;;;11.70;99.90;;;;;;4828616;29;20550;-78
2022/10/02 07:13:26;;;;;;;19.67;13.03;;;11.60;99.90;;;;;;4845461;29;20205;-78
2022/10/02 07:16:08;;;;;;;20.83;13.33;;;11.50;99.90;;;;;;4826077;29;20214;-76
2022/10/02 07:19:19;;;;;;;18.47;12.37;;;11.40;99.90;;;;;;4827824;29;20222;-76
2022/10/02 07:22:07;;;;;;;20.47;13.00;;;11.50;99.90;;;;;;4825018;29;20214;-74
2022/10/02 07:25:15;;;;;;;20.10;11.87;;;11.50;99.90;;;;;;4806686;29;20234;-75
2022/10/02 07:27:48;;;;;;;17.80;11.40;;;11.60;99.90;;;;;;4817634;29;20218;-77
2022/10/02 07:30:17;;;;;;;18.27;10.73;;;11.60;99.90;;;;;;4824756;29;20245;-76
2022/10/02 07:33:01;;;;;;;18.63;11.57;;;11.60;99.90;;;;;;4809684;29;20214;-75
2022/10/02 07:35:39;;;;;;;13.90;10.20;;;11.60;99.90;;;;;;4809116;29;20214;-77
2022/10/02 07:38:22;;;;;;;17.63;10.17;;;11.70;99.90;;;;;;4810002;29;20263;-75
2022/10/02 07:41:29;;;;;;;15.37;10.27;;;11.70;99.90;;;;;;4809475;29;20700;-75
2022/10/02 07:44:11;;;;;;;13.13;9.57;;;11.80;99.90;;;;;;4824387;29;20219;-74
2022/10/02 07:46:44;;;;;;;16.17;10.73;;;11.80;99.90;;;;;;4824608;29;20550;-76
2022/10/02 07:49:29;;;;;;;12.07;9.43;;;11.80;99.90;;;;;;4824332;29;20202;-76
2022/10/02 07:52:18;;;;;;;12.63;7.80;;;11.80;99.90;;;;;;4830575;29;20207;-78
2022/10/02 07:55:12;;;;;;;11.37;7.20;;;11.90;99.90;;;;;;4900756;29;20203;-76
2022/10/02 07:57:58;;;;;;;9.87;6.57;;;12.10;99.90;;;;;;4903036;29;20270;-74
2022/10/02 08:00:29;;;;;;;10.07;6.53;;;12.00;99.90;;;;;;4903193;29;20264;-78
2022/10/02 08:03:17;;;;;;;8.43;6.17;;;12.00;99.90;;;;;;4883671;29;20196;-85
2022/10/02 08:05:53;;;;;;;9.97;5.90;;;12.00;99.90;;;;;;4883585;29;20224;-76
2022/10/02 08:08:39;;;;;;;10.93;5.77;;;12.10;99.90;;;;;;4884009;29;20263;-85
2022/10/02 08:11:13;;;;;;;8.47;5.17;;;12.10;99.90;;;;;;4899505;29;20207;-82
2022/10/02 08:13:44;;;;;;;11.33;5.53;;;12.10;99.90;;;;;;4883683;29;20201;-79
2022/10/02 08:16:13;;;;;;;9.40;5.10;;;12.10;99.90;;;;;;4883086;29;20204;-75
2022/10/02 08:18:47;;;;;;;8.53;4.60;;;12.20;99.90;;;;;;4867962;29;20295;-78
2022/10/02 08:21:17;;;;;;;8.53;4.37;;;12.20;99.90;;;;;;4896735;29;20231;-79
2022/10/02 08:23:51;;;;;;;9.57;4.87;;;12.30;99.90;;;;;;4917773;29;20312;-76
2022/10/02 08:26:33;;;;;;;7.70;3.90;;;12.30;99.90;;;;;;4896634;29;20226;-73
2022/10/02 08:29:18;;;;;;;8.87;3.77;;;12.40;99.90;;;;;;4898586;29;20243;-73
2022/10/02 08:31:45;;;;;;;6.60;3.90;;;12.30;99.90;;;;;;4899438;29;20196;-73
2022/10/02 08:34:21;;;;;;;6.70;3.93;;;12.30;99.90;;;;;;4898843;29;20199;-74
2022/10/02 08:37:28;;;;;;;7.67;3.90;;;12.30;99.90;;;;;;4900811;29;20212;-77
2022/10/02 08:40:19;;;;;;;7.27;4.20;;;12.30;99.90;;;;;;4892076;29;20283;-75
2022/10/02 08:43:16;;;;;;;9.00;3.70;;;12.40;99.90;;;;;;4911738;29;20246;-74
2022/10/02 08:46:06;;;;;;;7.90;3.17;;;12.40;99.90;;;;;;4841417;29;20233;-76
2022/10/02 08:49:14;;;;;;;7.50;3.20;;;12.40;99.90;;;;;;4822862;29;20700;-73
2022/10/02 08:51:40;;;;;;;6.50;2.93;;;12.40;99.90;;;;;;4768339;30;20590;-78
2022/10/02 08:54:14;;;;;;;7.03;2.97;;;12.40;99.90;;;;;;4770831;30;20225;-83
2022/10/02 08:56:54;;;;;;;5.20;2.73;;;12.50;99.90;;;;;;4755245;30;20205;-75
2022/10/02 08:59:42;;;;;;;6.17;2.80;;;12.50;99.90;;;;;;4752667;30;20201;-85
2022/10/02 09:02:26;;;;;;;7.33;2.80;;;12.50;99.90;;;;;;4753769;30;20204;-77
2022/10/02 09:05:24;;;;;;;6.57;3.20;;;12.70;99.90;;;;;;4750283;30;20285;-74
2022/10/02 09:08:16;;;;;;;7.23;2.67;;;12.70;99.90;;;;;;4758808;30;20216;-76
2022/10/02 09:11:30;;;;;;;8.50;3.20;;;12.80;99.90;;;;;;4775289;23;20201;-76
2022/10/02 09:14:22;;;;;;;5.63;2.47;;;12.90;99.90;;;;;;4891169;29;20926;-76
2022/10/02 09:17:10;;;;;;;6.03;2.50;;;13.00;99.90;;;;;;4914026;29;20204;-76
2022/10/02 09:19:56;;;;;;;6.37;2.80;;;13.30;99.90;;;;;;4922189;29;20222;-76
2022/10/02 09:22:29;;;;;;;11.67;4.20;;;13.50;99.90;;;;;;4900584;29;20204;-77
2022/10/02 09:25:49;;;;;;;5.40;2.50;;;13.80;99.90;;;;;;4898731;29;20220;-76
2022/10/02 09:28:28;;;;;;;8.17;2.80;;;14.00;99.90;;;;;;4826101;29;20206;-78
2022/10/02 09:31:04;;;;;;;7.77;2.50;;;14.30;99.90;;;;;;4825796;29;20225;-79
2022/10/02 09:33:51;;;;;;;8.30;2.47;;;14.20;99.90;;;;;;4825707;29;20206;-76
2022/10/02 09:36:46;;;;;;;5.60;2.20;;;13.90;99.90;;;;;;4822315;29;20683;-70
2022/10/02 09:39:40;;;;;;;8.77;2.53;;;13.90;99.90;;;;;;4834106;29;20218;-71
2022/10/02 09:42:32;;;;;;;6.93;2.70;;;14.00;99.90;;;;;;4840738;29;20203;-71
2022/10/02 09:45:17;;;;;;;8.80;2.60;;;14.00;99.90;;;;;;4822353;29;20583;-72
2022/10/02 09:48:00;;;;;;;7.83;2.37;;;14.10;99.90;;;;;;4807405;29;20214;-71
2022/10/02 09:50:55;;;;;;;10.47;2.57;;;14.40;99.90;;;;;;4822296;29;20205;-71
2022/10/02 09:53:34;;;;;;;6.87;2.30;;;14.90;99.90;;;;;;4822541;29;20350;-74
2022/10/02 09:56:15;;;;;;;5.50;1.90;;;15.20;99.90;;;;;;4822307;29;20228;-83
2022/10/02 09:59:00;;;;;;;7.80;2.20;;;15.70;99.90;;;;;;4844843;29;20200;-77
2022/10/02 10:01:49;;;;;;;8.77;1.80;;;16.00;99.90;;;;;;4882035;29;20264;-77
2022/10/02 10:04:16;;;;;;;5.03;1.67;;;16.70;99.90;;;;;;4886446;29;20201;-73
2022/10/02 10:07:14;;;;;;;5.60;1.90;;;17.20;99.90;;;;;;4888279;29;20571;-81
2022/10/02 10:09:50;;;;;;;3.67;1.50;;;17.60;99.90;;;;;;4893250;29;20662;-77
2022/10/02 10:12:33;;;;;;;7.23;1.60;;;17.50;99.90;;;;;;4898755;29;20697;-76
2022/10/02 10:15:03;;;;;;;3.27;1.70;;;17.10;99.90;;;;;;4862453;29;20200;-80
2022/10/02 10:17:54;;;;;;;5.40;1.40;;;16.30;99.90;;;;;;4887375;29;20550;-79
2022/10/02 10:20:42;;;;;;;5.70;1.57;;;15.90;99.90;;;;;;4885673;29;20212;-73
2022/10/02 10:23:30;;;;;;;8.27;1.70;;;15.80;99.90;;;;;;4887560;29;20188;-78
2022/10/02 10:26:42;;;;;;;4.77;1.50;;;15.50;99.90;;;;;;4886634;29;20221;-82
2022/10/02 10:29:28;;;;;;;6.03;2.10;;;15.00;99.90;;;;;;4870930;29;20188;-76
2022/10/02 10:35:18;;;;;;;4.37;1.90;;;15.20;99.90;;;;;;4900723;23;20227;-80
2022/10/02 10:41:05;;;;;;;5.30;1.97;;;16.60;99.90;;;;;;4893852;29;20204;-74
2022/10/02 10:43:36;;;;;;;5.10;1.63;;;17.40;99.90;;;;;;4889500;29;20238;-72
2022/10/02 10:46:22;;;;;;;7.07;1.90;;;18.00;99.90;;;;;;4916607;29;20554;-76
2022/10/02 10:49:19;;;;;;;3.40;1.60;;;18.10;99.90;;;;;;4899595;29;20235;-73
2022/10/02 10:52:12;;;;;;;5.23;1.80;;;17.80;99.90;;;;;;4916248;29;20267;-75
2022/10/02 10:54:59;;;;;;;3.83;1.70;;;17.60;99.90;;;;;;4916485;29;20211;-77
2022/10/02 10:57:35;;;;;;;7.13;1.90;;;17.10;99.90;;;;;;4916432;29;20282;-74
2022/10/02 11:00:16;;;;;;;5.87;2.03;;;16.50;99.90;;;;;;4899488;29;20198;-73
2022/10/02 11:03:14;;;;;;;3.73;1.70;;;15.90;99.90;;;;;;4899314;29;20195;-72
2022/10/02 11:06:15;;;;;;;5.30;2.37;;;15.40;99.90;;;;;;4899291;29;20688;-77
2022/10/02 11:09:03;;;;;;;6.37;2.30;;;14.70;99.90;;;;;;4899702;29;20214;-73
2022/10/02 11:11:33;;;;;;;5.27;2.73;;;14.20;99.90;;;;;;4899038;29;20199;-72
2022/10/02 11:14:27;;;;;;;8.27;3.30;;;14.30;99.90;;;;;;4899457;29;20707;-76
2022/10/02 11:17:14;;;;;;;5.63;2.80;;;14.70;99.90;;;;;;4884802;29;20208;-74
2022/10/02 11:20:05;;;;;;;8.77;2.97;;;14.50;99.90;;;;;;4899652;29;20274;-71
2022/10/02 11:22:51;;;;;;;8.40;3.13;;;15.00;99.90;;;;;;4898369;29;20194;-72
2022/10/02 11:25:38;;;;;;;10.80;3.00;;;15.50;99.90;;;;;;4911840;29;20602;-66
2022/10/02 11:28:17;;;;;;;6.87;2.30;;;16.50;99.90;;;;;;4914762;29;20191;-75
2022/10/02 11:30:54;;;;;;;7.53;2.57;;;16.70;99.90;;;;;;4928854;29;20551;-71
2022/10/02 11:33:33;;;;;;;4.53;2.40;;;16.40;99.90;;;;;;4901362;29;20226;-68
2022/10/02 11:36:08;;;;;;;6.93;2.23;;;16.30;99.90;;;;;;4916167;29;20202;-68
2022/10/02 11:38:49;;;;;;;5.37;2.40;;;16.30;99.90;;;;;;4929118;29;20206;-68
2022/10/02 11:41:54;;;;;;;4.23;2.30;;;16.40;99.90;;;;;;4917003;29;20227;-75
2022/10/02 11:44:47;;;;;;;5.03;2.00;;;16.10;99.90;;;;;;4926788;29;20214;-73
2022/10/02 11:47:28;;;;;;;5.60;2.00;;;15.90;99.90;;;;;;4930137;29;20199;-72
2022/10/02 11:50:40;;;;;;;3.60;2.10;;;16.00;99.90;;;;;;4935564;29;20355;-75
2022/10/02 11:53:58;;;;;;;5.53;2.17;;;15.80;99.90;;;;;;4906860;29;20205;-74
2022/10/02 11:56:28;;;;;;;5.30;1.90;;;15.90;99.90;;;;;;4860625;29;20213;-72
2022/10/02 11:59:27;;;;;;;4.20;1.80;;;15.80;99.90;;;;;;4845515;29;20201;-73
2022/10/02 12:02:01;;;;;;;4.90;2.00;;;15.70;99.90;;;;;;4860901;29;20617;-71
2022/10/02 12:04:31;;;;;;;4.90;1.70;;;15.50;99.90;;;;;;4845037;29;20758;-76
2022/10/02 12:07:18;;;;;;;5.27;1.70;;;15.50;99.90;;;;;;4845251;29;20755;-74
2022/10/02 12:10:51;;;;;;;5.33;2.00;;;15.30;99.90;;;;;;4845264;29;20208;-74
2022/10/02 12:13:19;;;;;;;5.33;2.00;;;15.00;99.90;;;;;;4805604;29;20227;-74
2022/10/02 12:16:12;;;;;;;5.47;1.87;;;14.70;99.90;;;;;;4805770;29;20211;-73
2022/10/02 12:18:39;;;;;;;5.37;2.33;;;14.40;99.90;;;;;;4805789;29;20222;-73
2022/10/02 12:27:53;;;;;;;3.50;2.13;;;14.00;99.90;;;;;;4805764;29;20244;-72
2022/10/02 12:30:41;;;;;;;7.53;2.10;;;13.70;99.90;;;;;;4789023;29;20268;-73
2022/10/02 12:33:26;;;;;;;6.60;2.47;;;13.50;99.90;;;;;;4855353;29;20822;-71
2022/10/02 12:36:06;;;;;;;6.30;2.07;;;13.40;99.90;;;;;;4844996;29;20584;-71
2022/10/02 12:38:51;;;;;;;6.10;2.30;;;13.50;99.90;;;;;;4841238;29;20694;-71
2022/10/02 12:41:51;;;;;;;16.13;3.07;;;13.50;99.90;;;;;;4860363;29;20198;-71
2022/10/02 12:44:33;;;;;;;5.37;2.20;;;13.80;99.90;;;;;;4844523;29;20371;-72
2022/10/02 12:47:21;;;;;;;6.13;2.83;;;14.10;99.90;;;;;;4883318;29;20242;-86
2022/10/02 12:50:12;;;;;;;7.20;2.27;;;14.30;99.90;;;;;;4904731;29;20203;-75
2022/10/02 12:52:57;;;;;;;5.53;2.17;;;14.40;99.90;;;;;;4904309;29;20704;-75
2022/10/02 12:55:49;;;;;;;6.33;2.20;;;14.40;99.90;;;;;;4920089;29;20562;-74
2022/10/02 12:58:50;;;;;;;5.43;2.10;;;14.40;99.90;;;;;;4920594;29;20305;-78
2022/10/02 13:01:42;;;;;;;8.05;2.70;;;14.60;99.90;;;;;;4919066;29;20434;-88
2022/10/02 13:04:30;;;;;;;8.97;2.73;;;14.40;99.90;;;;;;4858581;29;20205;-82
2022/10/02 13:07:02;;;;;;;6.67;2.53;;;14.30;99.90;;;;;;4858491;29;20246;-81
2022/10/02 13:09:34;;;;;;;6.93;2.80;;;14.40;99.90;;;;;;4842046;29;20202;-77
2022/10/02 13:12:43;;;;;;;6.55;2.63;;;14.40;99.90;;;;;;4840614;29;20443;-85
2022/10/02 13:15:36;;;;;;;6.47;2.40;;;14.50;99.90;;;;;;4842261;29;20292;-77
2022/10/02 13:18:24;;;;;;;6.32;2.67;;;14.60;99.90;;;;;;4842783;29;20445;-77
2022/10/02 13:21:10;;;;;;;7.43;3.00;;;14.50;99.90;;;;;;4856428;29;20449;-75
2022/10/02 13:23:37;;;;;;;7.17;2.60;;;14.30;99.90;;;;;;4858189;29;20194;-75
2022/10/02 13:26:15;;;;;;;6.93;2.17;;;14.50;99.90;;;;;;4857315;29;20232;-76
2022/10/02 13:29:00;;;;;;;6.27;2.30;;;14.60;99.90;;;;;;4858729;29;20646;-80
2022/10/02 13:31:38;;;;;;;3.80;2.23;;;14.50;99.90;;;;;;4843142;29;20811;-85
2022/10/02 13:34:18;;;;;;;7.33;2.40;;;14.50;99.90;;;;;;4859173;29;20225;-76
2022/10/02 13:37:03;;;;;;;6.00;2.33;;;14.40;99.90;;;;;;4843997;29;20662;-74
2022/10/02 13:39:58;;;;;;;6.13;2.00;;;14.40;99.90;;;;;;4827931;29;20205;-75
2022/10/02 13:42:47;;;;;;;7.80;2.30;;;14.40;99.90;;;;;;4917883;29;20195;-75
2022/10/02 13:45:52;;;;;;;4.43;2.20;;;14.30;99.90;;;;;;4949880;28;20213;-78
2022/10/02 13:48:54;;;;;;;6.23;2.50;;;14.30;99.90;;;;;;4919670;29;20720;-75
2022/10/02 13:51:37;;;;;;;6.80;2.30;;;14.30;99.90;;;;;;4919572;29;20202;-75
2022/10/02 13:54:20;;;;;;;7.53;3.00;;;14.30;99.90;;;;;;4919173;29;20205;-75
2022/10/02 13:56:50;;;;;;;5.87;2.33;;;14.30;99.90;;;;;;4919674;29;20275;-78
2022/10/02 13:59:51;;;;;;;5.73;2.57;;;14.40;99.90;;;;;;4904011;29;20207;-75
2022/10/02 14:03:00;;;;;;;7.83;2.50;;;14.30;99.90;;;;;;4919965;29;20203;-77
2022/10/02 14:05:48;;;;;;;5.67;2.50;;;14.30;99.90;;;;;;4919371;29;20254;-76
2022/10/02 14:09:08;;;;;;;7.30;2.43;;;14.30;99.90;;;;;;4919245;29;20219;-76
2022/10/02 14:12:08;;;;;;;7.10;2.20;;;14.20;99.90;;;;;;4936485;29;20579;-77
2022/10/02 14:14:57;;;;;;;4.13;2.17;;;14.20;99.90;;;;;;4919034;29;20203;-77